createdAt,value
2022-08-04T00:01:44.493Z,3.60
2022-08-04T00:04:22.201Z,3.23
2022-08-04T00:07:00.324Z,3.73
2022-08-04T00:09:39.166Z,3.57
2022-08-04T00:12:09.032Z,3.63
2022-08-04T00:14:42.798Z,3.60
2022-08-04T00:17:12.464Z,3.03
2022-08-04T00:19:44.407Z,3.27
2022-08-04T00:22:14.549Z,3.73
2022-08-04T00:24:44.935Z,3.40
2022-08-04T00:27:15.739Z,3.47
2022-08-04T00:29:47.027Z,3.73
2022-08-04T00:32:34.125Z,4.33
2022-08-04T00:35:03.807Z,3.83
2022-08-04T00:37:34.209Z,3.93
2022-08-04T00:40:03.785Z,3.80
2022-08-04T00:42:49.228Z,3.87
2022-08-04T00:46:12.540Z,4.20
2022-08-04T00:48:57.824Z,4.03
2022-08-04T00:51:40.887Z,4.30
2022-08-04T00:54:19.183Z,3.97
2022-08-04T00:57:34.181Z,4.40
2022-08-04T01:00:09.635Z,4.10
2022-08-04T01:02:41.334Z,4.10
2022-08-04T01:05:22.965Z,4.23
2022-08-04T01:08:29.733Z,4.33
2022-08-04T01:11:10.856Z,4.60
2022-08-04T01:13:57.462Z,4.30
2022-08-04T01:16:27.875Z,4.10
2022-08-04T01:19:01.157Z,4.50
2022-08-04T01:22:04.989Z,4.37
2022-08-04T01:25:00.339Z,4.23
2022-08-04T01:27:50.773Z,4.50
2022-08-04T01:30:20.658Z,4.57
2022-08-04T01:32:53.351Z,4.73
2022-08-04T01:35:46.982Z,4.90
2022-08-04T01:38:21.130Z,4.27
2022-08-04T01:40:55.267Z,4.20
2022-08-04T01:43:24.767Z,4.10
2022-08-04T01:45:59.920Z,4.03
2022-08-04T01:48:31.965Z,4.23
2022-08-04T01:51:04.242Z,3.67
2022-08-04T01:53:37.092Z,3.77
2022-08-04T01:56:06.944Z,3.70
2022-08-04T01:58:37.156Z,3.80
2022-08-04T02:01:09.235Z,3.60
2022-08-04T02:04:21.227Z,3.70
2022-08-04T02:06:34.004Z,3.63
2022-08-04T02:09:13.615Z,3.87
2022-08-04T02:11:46.141Z,3.57
2022-08-04T02:14:38.392Z,3.43
2022-08-04T02:17:13.074Z,3.60
2022-08-04T02:20:00.860Z,3.30
2022-08-04T02:22:30.589Z,3.47
2022-08-04T02:25:06.151Z,3.10
2022-08-04T02:27:59.718Z,3.40
2022-08-04T02:30:34.827Z,3.60
2022-08-04T02:33:08.014Z,3.40
2022-08-04T02:35:39.599Z,3.80
2022-08-04T02:38:25.461Z,3.90
2022-08-04T02:41:00.304Z,3.07
2022-08-04T02:43:51.211Z,3.37
2022-08-04T02:46:21.370Z,3.60
2022-08-04T02:48:53.198Z,3.37
2022-08-04T02:51:25.692Z,3.30
2022-08-04T02:53:58.715Z,3.40
2022-08-04T02:56:30.207Z,3.30
2022-08-04T02:59:01.639Z,3.33
2022-08-04T03:01:30.782Z,3.37
2022-08-04T03:04:26.040Z,3.67
2022-08-04T03:07:30.387Z,3.10
2022-08-04T03:10:47.554Z,3.53
2022-08-04T03:14:01.127Z,3.30
2022-08-04T03:17:16.759Z,3.43
2022-08-04T03:20:25.149Z,3.63
2022-08-04T03:23:27.583Z,3.63
2022-08-04T03:26:28.161Z,3.90
2022-08-04T03:29:36.582Z,4.10
2022-08-04T03:32:39.537Z,4.40
2022-08-04T03:35:53.296Z,4.13
2022-08-04T03:38:57.239Z,3.80
2022-08-04T03:41:51.607Z,4.47
2022-08-04T03:44:58.477Z,4.03
2022-08-04T03:47:44.570Z,4.20
2022-08-04T03:50:43.225Z,4.13
2022-08-04T03:53:33.448Z,4.50
2022-08-04T03:56:43.409Z,3.80
2022-08-04T03:59:29.002Z,3.97
2022-08-04T04:02:24.731Z,4.50
2022-08-04T04:05:23.141Z,4.33
2022-08-04T04:08:18.716Z,4.33
2022-08-04T04:11:24.645Z,4.07
2022-08-04T04:14:19.854Z,3.93
2022-08-04T04:17:06.637Z,4.40
2022-08-04T04:20:10.143Z,3.90
2022-08-04T04:22:55.627Z,4.20
2022-08-04T04:25:37.023Z,3.93
2022-08-04T04:28:46.552Z,4.03
2022-08-04T04:31:36.048Z,3.90
2022-08-04T04:34:15.776Z,3.83
2022-08-04T04:36:56.867Z,3.80
2022-08-04T04:39:33.667Z,4.20
2022-08-04T04:42:26.606Z,3.93
2022-08-04T04:45:07.143Z,3.67
2022-08-04T04:48:08.278Z,3.60
2022-08-04T04:50:48.507Z,3.80
2022-08-04T04:53:25.351Z,3.73
2022-08-04T04:56:02.046Z,3.80
2022-08-04T04:58:37.322Z,3.60
2022-08-04T05:01:35.550Z,3.50
2022-08-04T05:04:33.462Z,3.20
2022-08-04T05:07:31.514Z,3.20
2022-08-04T05:10:07.993Z,3.40
2022-08-04T05:14:36.506Z,3.30
2022-08-04T05:16:01.590Z,3.70
2022-08-04T05:18:34.207Z,3.20
2022-08-04T05:21:12.351Z,4.03
2022-08-04T05:23:47.989Z,3.90
2022-08-04T05:26:20.059Z,3.50
2022-08-04T05:28:54.966Z,3.60
2022-08-04T05:31:28.032Z,3.50
2022-08-04T05:33:58.992Z,4.03
2022-08-04T05:36:41.267Z,3.70
2022-08-04T05:39:15.974Z,4.00
2022-08-04T05:41:48.198Z,3.90
2022-08-04T05:44:26.257Z,4.10
2022-08-04T05:46:58.278Z,4.03
2022-08-04T05:49:28.842Z,4.20
2022-08-04T05:52:02.377Z,4.00
2022-08-04T05:54:33.402Z,4.30
2022-08-04T05:57:04.556Z,4.33
2022-08-04T05:59:33.999Z,4.60
2022-08-04T06:02:05.554Z,4.10
2022-08-04T06:04:38.384Z,4.10
2022-08-04T06:07:07.504Z,4.57
2022-08-04T06:09:36.144Z,4.13
2022-08-04T06:12:08.661Z,4.47
2022-08-04T06:14:40.680Z,4.40
2022-08-04T06:18:33.232Z,4.33
2022-08-04T06:20:18.862Z,4.80
2022-08-04T06:22:53.665Z,4.93
2022-08-04T06:25:25.528Z,4.40
2022-08-04T06:27:55.898Z,4.70
2022-08-04T06:30:26.973Z,5.33
2022-08-04T06:33:04.389Z,5.57
2022-08-04T06:35:34.429Z,4.97
2022-08-04T06:38:04.140Z,4.90
2022-08-04T06:40:36.578Z,5.60
2022-08-04T06:43:07.843Z,5.60
2022-08-04T06:45:38.941Z,5.23
2022-08-04T06:48:10.092Z,5.83
2022-08-04T06:51:24.504Z,6.07
2022-08-04T06:53:28.078Z,7.50
2022-08-04T06:55:58.242Z,8.50
2022-08-04T06:58:28.222Z,9.87
2022-08-04T07:01:01.982Z,12.67
2022-08-04T07:03:33.247Z,14.80
2022-08-04T07:06:05.767Z,17.07
2022-08-04T07:08:36.999Z,25.77
2022-08-04T07:11:07.126Z,24.77
2022-08-04T07:13:35.772Z,25.07
2022-08-04T07:16:05.510Z,23.33
2022-08-04T07:18:35.707Z,23.13
2022-08-04T07:21:04.219Z,22.27
2022-08-04T07:23:32.806Z,23.43
2022-08-04T07:26:12.003Z,24.87
2022-08-04T07:28:42.392Z,23.17
2022-08-04T07:31:31.882Z,21.33
2022-08-04T07:34:20.712Z,23.17
2022-08-04T07:36:51.768Z,25.10
2022-08-04T07:39:28.667Z,22.87
2022-08-04T07:41:59.426Z,21.43
2022-08-04T07:44:31.144Z,22.30
2022-08-04T07:47:00.102Z,22.93
2022-08-04T07:49:55.169Z,21.67
2022-08-04T07:56:24.126Z,18.67
2022-08-04T07:58:52.423Z,17.63
2022-08-04T08:01:20.717Z,17.80
2022-08-04T08:03:50.181Z,16.97
2022-08-04T08:06:33.091Z,17.13
2022-08-04T08:09:12.709Z,16.60
2022-08-04T08:12:38.494Z,16.60
2022-08-04T08:14:35.147Z,17.37
2022-08-04T08:17:04.394Z,17.30
2022-08-04T08:19:34.697Z,17.93
2022-08-04T08:22:05.411Z,16.63
2022-08-04T08:24:37.276Z,16.90
2022-08-04T08:27:07.039Z,16.17
2022-08-04T08:29:36.434Z,17.13
2022-08-04T08:32:08.481Z,17.77
2022-08-04T08:34:38.584Z,17.13
2022-08-04T08:37:14.617Z,18.10
2022-08-04T08:39:50.914Z,17.30
2022-08-04T08:42:47.983Z,18.10
2022-08-04T08:45:44.586Z,17.17
2022-08-04T08:48:32.949Z,16.67
2022-08-04T08:51:14.178Z,16.40
2022-08-04T09:03:21.363Z,15.53
2022-08-04T09:06:25.172Z,16.27
2022-08-04T09:12:52.642Z,16.70
2022-08-04T09:15:31.390Z,15.73
2022-08-04T09:23:29.785Z,15.67
2022-08-04T09:30:50.036Z,14.93
2022-08-04T09:46:41.742Z,14.07
2022-08-04T09:53:52.632Z,12.93
2022-08-04T10:01:09.441Z,9.80
2022-08-04T10:08:29.053Z,8.52
2022-08-04T10:11:08.071Z,7.22
2022-08-04T10:18:46.839Z,8.27
2022-08-04T10:26:08.700Z,7.63
2022-08-04T10:33:04.148Z,5.88
2022-08-04T10:40:32.867Z,6.30
2022-08-04T10:47:31.847Z,7.28
2022-08-04T10:51:03.721Z,6.78
2022-08-04T10:54:35.774Z,6.15
2022-08-04T10:57:10.032Z,6.22
2022-08-04T10:59:58.012Z,5.38
2022-08-04T11:07:16.653Z,5.63
2022-08-04T11:09:46.168Z,6.00
2022-08-04T11:12:18.964Z,5.88
2022-08-04T11:15:22.066Z,6.38
2022-08-04T11:22:20.986Z,6.05
2022-08-04T11:29:27.262Z,5.82
2022-08-04T11:36:40.882Z,6.40
2022-08-04T11:44:03.342Z,6.63
2022-08-04T11:46:41.164Z,6.75
2022-08-04T11:58:25.183Z,6.68
2022-08-04T12:09:18.880Z,6.90
2022-08-04T12:12:08.289Z,6.57
2022-08-04T12:14:48.353Z,7.05
2022-08-04T12:26:39.723Z,6.40
2022-08-04T12:30:54.218Z,6.03
2022-08-04T12:38:12.825Z,5.25
2022-08-04T12:45:13.099Z,5.97
2022-08-04T12:52:45.087Z,5.93
2022-08-04T13:00:47.979Z,4.88
2022-08-04T13:16:38.120Z,3.30
2022-08-04T13:19:16.433Z,3.33
2022-08-04T13:26:44.209Z,3.45
2022-08-04T13:34:19.223Z,3.38
2022-08-04T13:36:57.070Z,2.75
2022-08-04T13:40:31.000Z,3.10
2022-08-04T13:44:15.769Z,2.90
2022-08-04T13:50:19.694Z,2.42
2022-08-04T13:57:35.395Z,2.25
2022-08-04T14:00:07.244Z,2.35
2022-08-04T14:02:41.676Z,2.00
2022-08-04T14:19:54.180Z,2.30
2022-08-04T14:27:21.972Z,2.25
2022-08-04T14:29:51.956Z,2.28
2022-08-04T14:37:13.460Z,2.20
2022-08-04T14:40:07.989Z,2.65
2022-08-04T14:42:55.212Z,2.00
2022-08-04T14:45:33.635Z,2.55
2022-08-04T14:48:31.628Z,2.20
2022-08-04T14:51:18.649Z,2.10
2022-08-04T15:00:04.952Z,2.53
2022-08-04T15:03:50.361Z,2.72
2022-08-04T15:06:29.327Z,2.10
2022-08-04T15:13:21.019Z,2.75
2022-08-04T15:16:25.165Z,2.35
2022-08-04T15:23:38.886Z,2.70
2022-08-04T15:26:12.666Z,2.45
2022-08-04T15:30:01.328Z,2.50
2022-08-04T15:32:32.726Z,2.90
2022-08-04T15:45:03.463Z,3.03
2022-08-04T15:47:31.831Z,2.75
2022-08-04T15:55:40.929Z,2.60
2022-08-04T16:02:44.764Z,2.50
2022-08-04T16:06:32.021Z,2.38
2022-08-04T16:09:02.184Z,2.63
2022-08-04T16:12:11.748Z,2.42
2022-08-04T16:19:13.474Z,2.92
2022-08-04T16:21:49.764Z,2.05
2022-08-04T16:24:54.624Z,2.28
2022-08-04T16:27:38.145Z,2.30
2022-08-04T16:30:14.389Z,2.53
2022-08-04T16:32:47.440Z,2.40
2022-08-04T16:49:30.309Z,2.60
2022-08-04T17:00:53.525Z,2.10
2022-08-04T17:08:28.719Z,2.42
2022-08-04T17:10:53.881Z,2.40
2022-08-04T17:14:02.847Z,2.30
2022-08-04T17:21:11.055Z,2.47
2022-08-04T17:24:16.349Z,2.30
2022-08-04T17:26:40.416Z,2.53
2022-08-04T17:29:10.188Z,2.40
2022-08-04T17:36:02.078Z,2.50
2022-08-04T17:44:03.548Z,2.47
2022-08-04T17:54:48.289Z,2.70
2022-08-04T17:57:20.071Z,2.30
2022-08-04T18:05:11.579Z,2.50
2022-08-04T18:21:20.901Z,2.20
2022-08-04T18:38:05.297Z,2.37
2022-08-04T18:40:26.630Z,2.17
2022-08-04T18:52:10.145Z,2.23
2022-08-04T18:59:29.247Z,2.70
2022-08-04T19:02:12.407Z,2.53
2022-08-04T19:14:51.814Z,2.60
2022-08-04T19:22:35.980Z,2.67
2022-08-04T19:30:11.649Z,2.40
2022-08-04T19:37:57.756Z,2.40
2022-08-04T19:50:02.946Z,2.63
2022-08-04T19:57:35.447Z,2.70
2022-08-04T20:04:43.385Z,2.30
2022-08-04T20:07:14.519Z,2.20
2022-08-04T20:14:32.269Z,2.70
2022-08-04T20:26:20.616Z,2.10
2022-08-04T20:28:51.658Z,2.30
2022-08-04T20:31:20.600Z,2.23
2022-08-04T20:33:54.805Z,2.30
2022-08-04T20:36:23.582Z,2.40
2022-08-04T20:43:38.223Z,2.20
2022-08-04T20:46:17.827Z,2.20
2022-08-04T20:48:47.098Z,2.30
2022-08-04T20:51:20.212Z,2.10
2022-08-04T21:02:56.751Z,2.43
2022-08-04T21:05:26.601Z,2.30
2022-08-04T21:07:58.729Z,2.37
2022-08-04T21:10:27.451Z,2.23
2022-08-04T21:12:56.275Z,2.47
2022-08-04T21:15:59.140Z,2.20
2022-08-04T21:18:29.628Z,2.20
2022-08-04T21:26:19.860Z,2.37
2022-08-04T21:28:48.491Z,2.33
2022-08-04T21:31:22.207Z,2.60
2022-08-04T21:33:52.381Z,2.53
2022-08-04T21:36:20.897Z,2.17
2022-08-04T21:42:10.041Z,2.17
2022-08-04T21:44:26.902Z,2.43
2022-08-04T21:51:58.840Z,2.50
2022-08-04T21:54:31.226Z,2.30
2022-08-04T21:58:11.809Z,2.10
2022-08-04T22:05:08.825Z,2.20
2022-08-04T22:07:50.204Z,2.30
2022-08-04T22:10:50.532Z,2.33
2022-08-04T22:18:04.314Z,1.97
2022-08-04T22:24:37.411Z,2.23
2022-08-04T22:31:53.127Z,2.40
2022-08-04T22:34:25.164Z,2.30
2022-08-04T22:36:54.064Z,2.20
2022-08-04T22:39:27.529Z,2.67
2022-08-04T22:42:35.962Z,2.10
2022-08-04T22:45:07.914Z,2.17
2022-08-04T22:47:37.058Z,2.23
2022-08-04T22:50:27.790Z,2.63
2022-08-04T22:52:56.307Z,2.23
2022-08-04T22:55:25.396Z,2.40
2022-08-04T22:58:09.481Z,2.10
2022-08-04T23:00:40.358Z,2.03
2022-08-04T23:03:36.886Z,2.40
2022-08-04T23:06:06.388Z,2.20
2022-08-04T23:09:16.274Z,2.90
2022-08-04T23:11:45.865Z,2.40
2022-08-04T23:18:17.767Z,2.67
2022-08-04T23:20:46.345Z,2.53
2022-08-04T23:23:15.148Z,2.60
2022-08-04T23:26:07.328Z,2.27
2022-08-04T23:33:49.319Z,2.53
2022-08-04T23:36:29.571Z,2.13
2022-08-04T23:39:01.251Z,2.60
2022-08-04T23:41:54.642Z,2.43
2022-08-04T23:44:25.342Z,3.00
2022-08-04T23:47:02.505Z,2.67
2022-08-04T23:49:44.540Z,2.80
2022-08-04T23:52:23.182Z,3.20
2022-08-04T23:54:58.569Z,2.60
2022-08-04T23:58:02.293Z,2.80
